Time;durP1;ratioP1;P1;durP2;ratioP2;P2;SDS_P1;SDS_P2;PMS_P1;PMS_P2;Temp;Humidity;BMP_temperature;BMP_pressure;BME280_temperature;BME280_humidity;BME280_pressure;Samples;Min_cycle;Max_cycle;Signal;HPM_P1;HPM_P2
2021/09/22 00:00:56;;;;;;;13.47;12.03;;;11.90;99.90;;;;;;5053602;28;20171;-58
2021/09/22 00:03:22;;;;;;;14.37;12.87;;;12.00;99.90;;;;;;5053711;28;20160;-58
2021/09/22 00:05:47;;;;;;;14.97;13.37;;;12.00;99.90;;;;;;5053170;28;20199;-57
2021/09/22 00:08:13;;;;;;;14.37;12.90;;;11.90;99.90;;;;;;5053468;28;20174;-58
2021/09/22 00:10:39;;;;;;;15.70;14.00;;;11.90;99.90;;;;;;5053579;28;20167;-58
2021/09/22 00:13:04;;;;;;;13.60;12.23;;;11.80;99.90;;;;;;5049023;28;20579;-58
2021/09/22 00:15:30;;;;;;;13.73;12.50;;;11.80;99.90;;;;;;5033376;28;20195;-57
2021/09/22 00:17:56;;;;;;;15.53;12.80;;;11.80;99.90;;;;;;5033287;28;20174;-58
2021/09/22 00:20:25;;;;;;;13.90;12.57;;;11.80;99.90;;;;;;5033956;28;20168;-56
2021/09/22 00:22:58;;;;;;;15.20;13.60;;;11.80;99.90;;;;;;5033277;28;20602;-57
2021/09/22 00:25:25;;;;;;;17.63;13.10;;;11.80;99.90;;;;;;5033438;28;20490;-58
2021/09/22 00:27:51;;;;;;;13.63;12.23;;;11.70;99.90;;;;;;5033500;28;20410;-56
2021/09/22 00:30:18;;;;;;;14.30;12.80;;;11.70;99.90;;;;;;5033280;28;20409;-55
2021/09/22 00:32:46;;;;;;;14.70;13.00;;;11.70;99.90;;;;;;5033511;28;20405;-58
2021/09/22 00:35:13;;;;;;;15.80;14.20;;;11.70;99.90;;;;;;5033515;28;20412;-58
2021/09/22 00:37:38;;;;;;;15.27;13.50;;;11.60;99.90;;;;;;5032820;28;20504;-58
2021/09/22 00:40:06;;;;;;;15.60;14.00;;;11.70;99.90;;;;;;5040304;28;20426;-58
2021/09/22 00:42:31;;;;;;;15.20;13.60;;;11.70;99.90;;;;;;5034069;28;20166;-58
2021/09/22 00:45:01;;;;;;;18.13;15.70;;;11.70;99.90;;;;;;5037362;28;20413;-57
2021/09/22 00:47:28;;;;;;;14.97;13.50;;;11.60;99.90;;;;;;5052769;28;20561;-57
2021/09/22 00:49:54;;;;;;;16.37;14.63;;;11.60;99.90;;;;;;5053362;28;20405;-57
2021/09/22 00:52:21;;;;;;;15.90;14.23;;;11.60;99.90;;;;;;5054582;28;20458;-57
2021/09/22 00:54:47;;;;;;;17.20;15.40;;;11.50;99.90;;;;;;5057403;28;20208;-58
2021/09/22 00:57:15;;;;;;;18.93;15.73;;;11.50;99.90;;;;;;5052186;28;20950;-58
2021/09/22 00:59:41;;;;;;;17.17;14.33;;;11.50;99.90;;;;;;5037201;28;20400;-58
2021/09/22 01:02:08;;;;;;;15.90;14.20;;;11.50;99.90;;;;;;5037371;28;20409;-58
2021/09/22 01:04:35;;;;;;;14.80;13.27;;;11.50;99.90;;;;;;5037062;28;20460;-56
2021/09/22 01:07:03;;;;;;;18.13;16.17;;;11.50;99.90;;;;;;5050391;28;20436;-55
2021/09/22 01:09:29;;;;;;;16.20;14.53;;;11.50;99.90;;;;;;5057209;28;20409;-55
2021/09/22 01:11:54;;;;;;;18.20;16.40;;;11.50;99.90;;;;;;5057120;28;20491;-56
2021/09/22 01:14:24;;;;;;;15.87;14.17;;;11.50;99.90;;;;;;5057199;28;20658;-56
2021/09/22 01:16:51;;;;;;;16.90;15.30;;;11.50;99.90;;;;;;5057017;28;20202;-55
2021/09/22 01:19:17;;;;;;;16.50;14.77;;;11.50;99.90;;;;;;5057079;28;20766;-57
2021/09/22 01:21:44;;;;;;;16.80;15.00;;;11.50;99.90;;;;;;5056732;28;20768;-56
2021/09/22 01:24:10;;;;;;;15.83;14.33;;;11.40;99.90;;;;;;5057299;28;21001;-57
2021/09/22 01:26:36;;;;;;;16.53;14.77;;;11.50;99.90;;;;;;5048837;28;20449;-58
2021/09/22 01:29:02;;;;;;;17.97;15.40;;;11.50;99.90;;;;;;5041153;28;20666;-58
2021/09/22 01:31:27;;;;;;;16.03;14.33;;;11.40;99.90;;;;;;5036764;28;20175;-58
2021/09/22 01:33:53;;;;;;;16.20;14.50;;;11.40;99.90;;;;;;5049719;28;20495;-58
2021/09/22 01:36:19;;;;;;;17.50;15.33;;;11.40;99.90;;;;;;5056442;28;20204;-59
2021/09/22 01:38:44;;;;;;;18.60;14.47;;;11.50;99.90;;;;;;5056491;28;20167;-57
2021/09/22 01:41:11;;;;;;;19.50;17.47;;;11.50;99.90;;;;;;5056413;28;20228;-56
2021/09/22 01:43:38;;;;;;;19.43;16.73;;;11.40;99.90;;;;;;5056462;28;20251;-59
2021/09/22 01:46:06;;;;;;;17.60;15.20;;;11.40;99.90;;;;;;5042961;28;20452;-58
2021/09/22 01:48:32;;;;;;;17.90;15.83;;;11.40;99.90;;;;;;5036138;28;20405;-57
2021/09/22 01:51:01;;;;;;;17.67;15.83;;;11.30;99.90;;;;;;5036321;28;20418;-58
2021/09/22 01:53:28;;;;;;;18.17;16.30;;;11.30;99.90;;;;;;5036486;28;20469;-58
2021/09/22 01:55:55;;;;;;;16.90;15.17;;;11.30;99.90;;;;;;5038771;28;20453;-59
2021/09/22 01:58:21;;;;;;;16.37;14.67;;;11.30;99.90;;;;;;5055803;28;20893;-58
2021/09/22 02:00:47;;;;;;;18.80;17.00;;;11.30;99.90;;;;;;5056091;28;20842;-58
2021/09/22 02:03:14;;;;;;;17.80;15.90;;;11.30;99.90;;;;;;5055427;28;20480;-58
2021/09/22 02:05:40;;;;;;;18.63;16.67;;;11.30;99.90;;;;;;5056228;28;20531;-57
2021/09/22 02:08:05;;;;;;;22.00;19.77;;;11.20;99.90;;;;;;5056136;28;20426;-58
2021/09/22 02:10:32;;;;;;;20.27;18.00;;;11.20;99.90;;;;;;5055927;28;20163;-58
2021/09/22 02:12:57;;;;;;;19.23;16.57;;;11.20;99.90;;;;;;5055669;28;20245;-58
2021/09/22 02:15:23;;;;;;;16.97;15.00;;;11.30;99.90;;;;;;5055786;28;21053;-58
2021/09/22 02:17:49;;;;;;;19.83;17.83;;;11.20;99.90;;;;;;5038535;28;20198;-59
2021/09/22 02:20:15;;;;;;;16.33;14.63;;;11.20;99.90;;;;;;5044096;28;20418;-58
2021/09/22 02:22:41;;;;;;;20.63;18.40;;;11.10;99.90;;;;;;5055629;28;20182;-58
2021/09/22 02:25:07;;;;;;;18.73;16.73;;;11.10;99.90;;;;;;5055628;28;20394;-59
2021/09/22 02:27:33;;;;;;;16.23;14.63;;;11.20;99.90;;;;;;5055677;28;20182;-59
2021/09/22 02:29:59;;;;;;;17.47;15.67;;;11.20;99.90;;;;;;5055554;28;20405;-57
2021/09/22 02:32:24;;;;;;;19.77;17.10;;;11.20;99.90;;;;;;5055707;28;20544;-58
2021/09/22 02:34:50;;;;;;;19.10;16.23;;;11.10;99.90;;;;;;5055527;28;20167;-57
2021/09/22 02:37:16;;;;;;;20.70;16.70;;;11.10;99.90;;;;;;5055226;28;20207;-59
2021/09/22 02:39:41;;;;;;;17.33;15.50;;;11.10;99.90;;;;;;5055468;28;20170;-59
2021/09/22 02:42:07;;;;;;;19.70;17.63;;;11.00;99.90;;;;;;5055042;28;20612;-59
2021/09/22 02:44:33;;;;;;;20.13;17.20;;;11.00;99.90;;;;;;5055159;28;20174;-59
2021/09/22 02:46:59;;;;;;;21.43;18.53;;;11.10;99.90;;;;;;5055196;28;20214;-58
2021/09/22 02:49:25;;;;;;;18.87;15.93;;;11.10;99.90;;;;;;5054823;28;20411;-58
2021/09/22 02:51:51;;;;;;;19.30;17.20;;;11.10;99.90;;;;;;5055174;28;20402;-58
2021/09/22 02:54:17;;;;;;;20.47;17.67;;;11.00;99.90;;;;;;5055534;28;20432;-58
2021/09/22 02:56:43;;;;;;;18.73;16.63;;;11.00;99.90;;;;;;5054602;28;20203;-56
2021/09/22 02:59:08;;;;;;;17.43;15.57;;;11.00;99.90;;;;;;5054821;28;20405;-58
2021/09/22 03:01:34;;;;;;;19.20;17.03;;;11.00;99.90;;;;;;5055303;28;20158;-59
2021/09/22 03:04:00;;;;;;;22.40;17.00;;;11.10;99.90;;;;;;5054775;28;20205;-57
2021/09/22 03:06:27;;;;;;;18.83;16.87;;;11.10;99.90;;;;;;5054427;28;20199;-55
2021/09/22 03:08:52;;;;;;;21.30;18.27;;;11.10;99.90;;;;;;5054897;28;20416;-58
2021/09/22 03:11:18;;;;;;;20.50;17.17;;;11.10;99.90;;;;;;5054350;28;20405;-57
2021/09/22 03:13:44;;;;;;;24.33;18.60;;;11.00;99.90;;;;;;5054597;28;20173;-57
2021/09/22 03:16:10;;;;;;;21.67;18.97;;;11.00;99.90;;;;;;5053418;28;20200;-59
2021/09/22 03:18:36;;;;;;;21.23;18.93;;;11.00;99.90;;;;;;5054443;28;20412;-58
2021/09/22 03:21:02;;;;;;;23.87;19.70;;;10.90;99.90;;;;;;5054164;28;20186;-59
2021/09/22 03:23:28;;;;;;;24.20;20.50;;;10.90;99.90;;;;;;5054396;28;20408;-58
2021/09/22 03:25:54;;;;;;;22.27;19.87;;;10.90;99.90;;;;;;5053805;28;20764;-59
2021/09/22 03:28:21;;;;;;;17.90;16.00;;;10.90;99.90;;;;;;5054483;28;20543;-58
2021/09/22 03:30:46;;;;;;;22.83;18.83;;;10.90;99.90;;;;;;5054199;28;20179;-59
2021/09/22 03:33:12;;;;;;;21.07;17.90;;;10.90;99.90;;;;;;5054067;28;20401;-58
2021/09/22 03:38:08;;;;;;;20.33;18.23;;;10.80;99.90;;;;;;5031332;28;20238;-59
2021/09/22 03:40:34;;;;;;;24.07;20.37;;;10.80;99.90;;;;;;5033494;28;20398;-60
2021/09/22 03:43:00;;;;;;;25.37;20.90;;;10.80;99.90;;;;;;5033958;28;20573;-58
2021/09/22 03:45:26;;;;;;;22.97;20.00;;;10.80;99.90;;;;;;5034196;28;20177;-59
2021/09/22 03:47:52;;;;;;;22.77;19.80;;;10.80;99.90;;;;;;5034074;28;20484;-59
2021/09/22 03:50:18;;;;;;;22.50;19.70;;;10.80;99.90;;;;;;5033652;28;20405;-58
2021/09/22 03:52:43;;;;;;;24.17;20.37;;;10.80;99.90;;;;;;5033453;28;20167;-59
2021/09/22 03:55:09;;;;;;;21.27;17.20;;;10.70;99.90;;;;;;5033961;28;20167;-59
2021/09/22 03:57:35;;;;;;;24.93;20.67;;;10.70;99.90;;;;;;5033885;28;20194;-59
2021/09/22 04:00:00;;;;;;;20.73;18.50;;;10.70;99.90;;;;;;5033726;28;20571;-59
2021/09/22 04:02:26;;;;;;;26.57;21.87;;;10.70;99.90;;;;;;5033775;28;20651;-58
2021/09/22 04:04:51;;;;;;;19.87;17.40;;;10.70;99.90;;;;;;5033500;28;20544;-58
2021/09/22 04:07:17;;;;;;;24.13;18.87;;;10.80;99.90;;;;;;5033105;28;20657;-59
2021/09/22 04:09:43;;;;;;;24.00;19.67;;;10.80;99.90;;;;;;5033576;28;20174;-58
2021/09/22 04:12:08;;;;;;;24.90;20.60;;;10.70;99.90;;;;;;5033708;28;20590;-60
2021/09/22 04:14:34;;;;;;;20.33;18.07;;;10.70;99.90;;;;;;5033523;28;20253;-60
2021/09/22 04:17:00;;;;;;;21.30;18.57;;;10.70;99.90;;;;;;5033390;28;20199;-60
2021/09/22 04:19:25;;;;;;;20.63;18.43;;;10.70;99.90;;;;;;5032764;28;20177;-60
2021/09/22 04:21:51;;;;;;;22.53;18.80;;;10.70;99.90;;;;;;5032979;28;20186;-60
2021/09/22 04:24:17;;;;;;;27.20;19.07;;;10.60;99.90;;;;;;5033324;28;20198;-60
2021/09/22 04:26:43;;;;;;;24.30;20.20;;;10.60;99.90;;;;;;5029857;28;20621;-60
2021/09/22 04:29:09;;;;;;;25.13;21.03;;;10.70;99.90;;;;;;5033545;28;20469;-58
2021/09/22 04:31:34;;;;;;;22.20;19.90;;;10.70;99.90;;;;;;5033163;28;20407;-59
2021/09/22 04:34:00;;;;;;;21.90;19.57;;;10.70;99.90;;;;;;5033474;28;20567;-60
2021/09/22 04:36:27;;;;;;;24.97;20.57;;;10.60;99.90;;;;;;5032447;28;20210;-60
2021/09/22 04:38:52;;;;;;;25.30;20.63;;;10.60;99.90;;;;;;5033375;28;20620;-60
2021/09/22 04:41:18;;;;;;;24.10;21.20;;;10.60;99.90;;;;;;5033657;28;20395;-58
2021/09/22 04:43:43;;;;;;;24.73;19.73;;;10.60;99.90;;;;;;5033125;28;20167;-59
2021/09/22 04:46:10;;;;;;;22.53;19.40;;;10.60;99.90;;;;;;5033458;28;20194;-60
2021/09/22 04:48:38;;;;;;;24.30;19.80;;;10.60;99.90;;;;;;5033285;28;20171;-60
2021/09/22 04:51:04;;;;;;;25.83;23.07;;;10.60;99.90;;;;;;5032485;28;20404;-60
2021/09/22 04:53:29;;;;;;;25.63;20.53;;;10.50;99.90;;;;;;5032997;28;20853;-59
2021/09/22 04:55:55;;;;;;;22.40;18.33;;;10.50;99.90;;;;;;5032748;28;20286;-60
2021/09/22 04:58:21;;;;;;;23.43;20.87;;;10.50;99.90;;;;;;5033036;28;20173;-60
2021/09/22 05:00:46;;;;;;;27.07;22.57;;;10.50;99.90;;;;;;5033105;28;20174;-60
2021/09/22 05:03:12;;;;;;;27.43;22.40;;;10.50;99.90;;;;;;5032936;28;20167;-60
2021/09/22 05:05:38;;;;;;;25.77;20.10;;;10.50;99.90;;;;;;5032954;28;20538;-58
2021/09/22 05:08:03;;;;;;;22.23;18.57;;;10.50;99.90;;;;;;5032470;28;20191;-58
2021/09/22 05:10:29;;;;;;;25.30;20.90;;;10.40;99.90;;;;;;5033086;28;20166;-58
2021/09/22 05:12:55;;;;;;;30.50;23.00;;;10.50;99.90;;;;;;5032779;28;20181;-59
2021/09/22 05:15:20;;;;;;;25.07;19.57;;;10.50;99.90;;;;;;5032700;28;20202;-59
2021/09/22 05:17:46;;;;;;;29.30;22.10;;;10.50;99.90;;;;;;5032673;28;20319;-58
2021/09/22 05:20:12;;;;;;;22.97;18.87;;;10.40;99.90;;;;;;5032418;28;20247;-58
2021/09/22 05:22:38;;;;;;;25.50;19.50;;;10.40;99.90;;;;;;5032034;28;20167;-58
2021/09/22 05:25:05;;;;;;;23.80;19.27;;;10.50;99.90;;;;;;5032462;28;20411;-60
2021/09/22 05:27:31;;;;;;;24.50;19.97;;;10.50;99.90;;;;;;5032803;28;20249;-60
2021/09/22 05:29:57;;;;;;;21.80;18.97;;;10.50;99.90;;;;;;5032441;28;20398;-60
2021/09/22 05:32:23;;;;;;;28.20;22.67;;;10.50;99.90;;;;;;5032411;28;20273;-60
2021/09/22 05:34:48;;;;;;;23.40;20.10;;;10.60;99.90;;;;;;5032700;28;20175;-59
2021/09/22 05:37:14;;;;;;;25.10;20.10;;;10.50;99.90;;;;;;5014835;28;20473;-59
2021/09/22 05:39:40;;;;;;;29.10;23.20;;;10.60;99.90;;;;;;5015875;28;20175;-59
2021/09/22 05:42:07;;;;;;;26.73;20.80;;;10.60;99.90;;;;;;4998693;28;20172;-60
2021/09/22 05:44:33;;;;;;;27.10;21.70;;;10.70;99.90;;;;;;5016292;28;20194;-60
2021/09/22 05:47:01;;;;;;;22.87;19.80;;;10.70;99.90;;;;;;5016316;28;20431;-60
2021/09/22 05:49:28;;;;;;;23.53;20.30;;;10.70;99.90;;;;;;5016178;28;20406;-59
2021/09/22 05:51:53;;;;;;;22.70;19.00;;;10.80;99.90;;;;;;5015834;28;20407;-60
2021/09/22 05:54:21;;;;;;;21.30;19.00;;;10.80;99.90;;;;;;5015770;28;20778;-60
2021/09/22 05:56:47;;;;;;;27.23;22.50;;;10.80;99.90;;;;;;5016158;28;20307;-60
2021/09/22 05:59:13;;;;;;;25.70;21.30;;;10.90;99.90;;;;;;5015650;28;20422;-60
2021/09/22 06:01:39;;;;;;;25.37;20.03;;;10.80;99.90;;;;;;5016057;28;20405;-60
2021/09/22 06:04:04;;;;;;;28.90;23.23;;;10.80;99.90;;;;;;5015536;28;20165;-60
2021/09/22 06:06:30;;;;;;;24.00;20.70;;;10.90;99.90;;;;;;5015193;28;20200;-60
2021/09/22 06:08:55;;;;;;;23.27;19.30;;;10.90;99.90;;;;;;5015571;28;20190;-60
2021/09/22 06:11:21;;;;;;;23.37;20.87;;;10.90;99.90;;;;;;5015577;28;20175;-60
2021/09/22 06:13:52;;;;;;;21.30;18.97;;;11.00;99.90;;;;;;5015516;28;20226;-60
2021/09/22 06:16:18;;;;;;;22.40;18.77;;;11.10;99.90;;;;;;5015106;28;20219;-60
2021/09/22 06:18:43;;;;;;;21.90;19.10;;;11.20;99.90;;;;;;5015771;28;20411;-60
2021/09/22 06:21:09;;;;;;;23.30;20.80;;;11.20;99.90;;;;;;5015557;28;20207;-60
2021/09/22 06:23:35;;;;;;;21.47;19.17;;;11.30;99.90;;;;;;5015598;28;20173;-58
2021/09/22 06:26:00;;;;;;;21.50;19.00;;;11.40;99.90;;;;;;5016003;28;20168;-60
2021/09/22 06:28:26;;;;;;;22.37;19.80;;;11.50;99.90;;;;;;5015364;28;20164;-58
2021/09/22 06:30:52;;;;;;;25.07;21.63;;;11.60;99.90;;;;;;5015642;28;20288;-59
2021/09/22 06:33:17;;;;;;;22.97;19.53;;;11.60;99.90;;;;;;5015506;28;20171;-58
2021/09/22 06:35:43;;;;;;;23.60;20.33;;;11.80;99.90;;;;;;5029618;28;20964;-59
2021/09/22 06:38:09;;;;;;;24.20;19.60;;;11.90;99.90;;;;;;5035054;28;20182;-60
2021/09/22 06:40:35;;;;;;;24.20;20.70;;;11.90;99.90;;;;;;5035111;28;20217;-60
2021/09/22 06:43:03;;;;;;;25.30;19.63;;;11.90;99.90;;;;;;5029223;28;20613;-60
2021/09/22 06:45:29;;;;;;;24.90;21.37;;;11.90;99.90;;;;;;5024012;28;20172;-60
2021/09/22 06:47:55;;;;;;;21.50;18.47;;;12.00;99.90;;;;;;5035018;28;20434;-60
2021/09/22 06:50:21;;;;;;;23.70;20.83;;;12.20;99.90;;;;;;5034887;28;20898;-59
2021/09/22 06:52:47;;;;;;;20.40;18.30;;;12.30;99.90;;;;;;5035183;28;20433;-59
2021/09/22 06:55:13;;;;;;;22.70;20.10;;;12.40;99.90;;;;;;5035665;28;20205;-59
2021/09/22 06:57:39;;;;;;;24.37;20.77;;;12.60;99.90;;;;;;5034931;28;20507;-58
2021/09/22 07:00:06;;;;;;;21.83;18.10;;;12.60;99.90;;;;;;5034457;28;20710;-58
2021/09/22 07:02:32;;;;;;;21.60;17.93;;;12.60;99.90;;;;;;5034750;28;20644;-59
2021/09/22 07:04:57;;;;;;;21.30;18.97;;;12.50;99.90;;;;;;5034592;28;20395;-60
2021/09/22 07:07:23;;;;;;;21.73;19.03;;;12.60;99.90;;;;;;5016855;28;20613;-59
2021/09/22 07:09:48;;;;;;;20.77;18.63;;;12.70;99.90;;;;;;5015331;28;20175;-60
2021/09/22 07:12:14;;;;;;;20.80;18.60;;;12.70;99.90;;;;;;5017836;28;20189;-60
2021/09/22 07:14:39;;;;;;;23.40;20.00;;;12.90;99.90;;;;;;5034170;28;20660;-59
2021/09/22 07:17:05;;;;;;;21.40;19.20;;;13.00;99.90;;;;;;5034306;28;20675;-60
2021/09/22 07:19:31;;;;;;;20.97;18.63;;;13.00;99.90;;;;;;5034196;28;20171;-60
2021/09/22 07:21:56;;;;;;;20.93;18.73;;;13.20;99.90;;;;;;5033333;28;20657;-60
2021/09/22 07:24:22;;;;;;;23.90;20.17;;;13.20;99.90;;;;;;5025645;28;20226;-59
2021/09/22 07:26:47;;;;;;;21.23;18.80;;;13.30;99.90;;;;;;5014799;28;20251;-60
2021/09/22 07:29:13;;;;;;;21.63;19.27;;;13.50;99.90;;;;;;5014297;28;20182;-60
2021/09/22 07:31:39;;;;;;;22.70;20.30;;;13.60;99.90;;;;;;5020779;28;20177;-60
2021/09/22 07:34:04;;;;;;;23.20;19.60;;;13.30;99.90;;;;;;5034305;28;20175;-59
2021/09/22 07:36:31;;;;;;;24.13;19.93;;;13.30;99.90;;;;;;5033391;28;20203;-57
2021/09/22 07:38:56;;;;;;;22.87;19.60;;;13.40;99.90;;;;;;5033994;28;20646;-60
2021/09/22 07:41:22;;;;;;;22.73;20.37;;;13.50;99.90;;;;;;5034010;28;20413;-60
2021/09/22 07:43:48;;;;;;;21.63;19.40;;;13.60;99.90;;;;;;5033991;28;20196;-60
2021/09/22 07:46:13;;;;;;;25.00;22.40;;;13.80;99.90;;;;;;5033975;28;20431;-60
2021/09/22 07:48:39;;;;;;;21.50;19.23;;;13.80;99.90;;;;;;5033925;28;20170;-59
2021/09/22 07:51:05;;;;;;;19.73;17.63;;;13.80;99.90;;;;;;5033570;28;20212;-62
2021/09/22 07:53:31;;;;;;;27.43;22.50;;;13.70;99.90;;;;;;5034298;28;20586;-58
2021/09/22 07:55:56;;;;;;;19.30;17.40;;;13.90;99.90;;;;;;5033906;28;20207;-59
2021/09/22 07:58:22;;;;;;;23.00;20.33;;;13.80;99.90;;;;;;5033940;28;20416;-59
2021/09/22 08:00:48;;;;;;;23.37;19.30;;;13.90;99.90;;;;;;5015446;28;20638;-59
2021/09/22 08:03:13;;;;;;;21.83;18.90;;;14.00;99.90;;;;;;5033537;28;20261;-59
2021/09/22 08:05:39;;;;;;;24.97;19.30;;;14.10;99.90;;;;;;5033851;28;20202;-57
2021/09/22 08:08:07;;;;;;;20.27;18.07;;;14.10;99.90;;;;;;5032847;28;20677;-58
2021/09/22 08:10:34;;;;;;;18.20;16.40;;;14.20;99.90;;;;;;5033969;28;20174;-60
2021/09/22 08:13:00;;;;;;;21.93;19.07;;;14.20;99.90;;;;;;5033229;28;20413;-57
2021/09/22 08:15:25;;;;;;;20.63;18.37;;;14.30;99.90;;;;;;5033259;28;20405;-59
2021/09/22 08:17:51;;;;;;;20.40;18.20;;;14.40;99.90;;;;;;5033032;28;20646;-60
2021/09/22 08:20:16;;;;;;;19.13;17.20;;;14.60;99.90;;;;;;5033782;28;20194;-59
2021/09/22 08:22:43;;;;;;;20.57;17.50;;;14.70;99.90;;;;;;5032882;28;20186;-59
2021/09/22 08:25:10;;;;;;;18.63;16.63;;;14.70;99.90;;;;;;5033461;28;20169;-60
2021/09/22 08:27:35;;;;;;;18.77;16.97;;;14.80;99.90;;;;;;5033596;28;20467;-60
2021/09/22 08:30:06;;;;;;;18.30;16.40;;;15.00;99.90;;;;;;5033157;28;20419;-59
2021/09/22 08:32:32;;;;;;;17.57;15.80;;;15.20;99.90;;;;;;5033343;28;20262;-59
2021/09/22 08:34:57;;;;;;;17.43;15.63;;;15.40;99.90;;;;;;5033077;28;20463;-58
2021/09/22 08:37:23;;;;;;;19.23;17.30;;;15.70;99.90;;;;;;5032515;28;20466;-58
2021/09/22 08:39:49;;;;;;;18.73;16.80;;;15.50;99.90;;;;;;5015426;28;20195;-59
2021/09/22 08:42:14;;;;;;;19.97;17.93;;;15.40;99.90;;;;;;5033098;28;20177;-58
2021/09/22 08:44:41;;;;;;;18.13;16.10;;;15.30;99.90;;;;;;5026733;28;20161;-58
2021/09/22 08:47:07;;;;;;;17.87;16.03;;;15.40;99.90;;;;;;5013275;28;20189;-58
2021/09/22 08:49:32;;;;;;;18.13;15.90;;;15.50;99.90;;;;;;5013259;28;20886;-57
2021/09/22 08:51:58;;;;;;;18.57;16.40;;;15.80;99.90;;;;;;5013332;28;20277;-60
2021/09/22 08:54:24;;;;;;;21.13;16.13;;;16.00;99.90;;;;;;5013170;28;20231;-57
2021/09/22 08:56:49;;;;;;;18.47;16.50;;;16.30;99.90;;;;;;5013269;28;20601;-60
2021/09/22 08:59:16;;;;;;;18.40;16.60;;;16.10;99.90;;;;;;5011502;28;20175;-58
2021/09/22 09:02:03;;;;;;;17.63;15.87;;;15.80;99.90;;;;;;5013222;28;20536;-57
2021/09/22 09:04:28;;;;;;;18.63;16.80;;;15.70;99.90;;;;;;5013272;28;20386;-60
2021/09/22 09:06:55;;;;;;;19.00;17.10;;;15.80;99.90;;;;;;5012510;28;20838;-59
2021/09/22 09:09:38;;;;;;;18.73;16.47;;;15.70;99.90;;;;;;5013714;28;20674;-58
2021/09/22 09:12:21;;;;;;;19.33;14.67;;;15.70;99.90;;;;;;5013647;28;20393;-60
2021/09/22 09:14:56;;;;;;;20.90;16.90;;;15.80;99.90;;;;;;5017002;28;20386;-60
2021/09/22 09:17:44;;;;;;;18.30;16.40;;;15.90;99.90;;;;;;5017357;28;20457;-60
2021/09/22 09:20:27;;;;;;;14.57;13.17;;;16.20;99.90;;;;;;5017217;28;20390;-60
2021/09/22 09:23:01;;;;;;;14.53;12.40;;;16.30;99.90;;;;;;5016666;28;20756;-60
2021/09/22 09:25:29;;;;;;;11.67;10.57;;;16.60;99.90;;;;;;5016957;28;20413;-60
2021/09/22 09:27:55;;;;;;;13.67;12.13;;;16.80;99.90;;;;;;5016888;28;20462;-59
2021/09/22 09:30:26;;;;;;;15.60;14.00;;;17.10;99.90;;;;;;5016947;28;20399;-60
2021/09/22 09:32:52;;;;;;;14.90;11.93;;;17.10;99.90;;;;;;5016492;28;20919;-60
2021/09/22 09:35:18;;;;;;;12.17;11.00;;;17.30;99.90;;;;;;5016442;28;20486;-60
2021/09/22 09:37:45;;;;;;;10.53;9.53;;;17.50;99.90;;;;;;5064923;23;20480;-58
2021/09/22 09:40:19;;;;;;;10.93;9.90;;;17.60;99.90;;;;;;5056665;28;20748;-58
2021/09/22 09:42:47;;;;;;;11.37;10.30;;;17.50;99.90;;;;;;5056982;28;20464;-54
2021/09/22 09:45:13;;;;;;;12.00;10.90;;;17.80;99.90;;;;;;5056883;28;20466;-55
2021/09/22 09:47:41;;;;;;;13.67;12.20;;;17.70;99.90;;;;;;5057122;28;20769;-57
2021/09/22 09:50:21;;;;;;;13.00;11.60;;;17.60;99.90;;;;;;5056424;28;20873;-57
2021/09/22 09:52:56;;;;;;;11.00;9.87;;;17.80;99.90;;;;;;5055836;28;20396;-53
2021/09/22 09:55:25;;;;;;;12.10;10.30;;;17.60;99.90;;;;;;5056222;28;20464;-56
2021/09/22 09:57:53;;;;;;;13.20;9.10;;;17.60;99.90;;;;;;5056251;28;20425;-56
2021/09/22 10:00:42;;;;;;;10.43;9.53;;;18.00;99.90;;;;;;5055726;28;20941;-57
2021/09/22 10:03:16;;;;;;;10.20;9.17;;;17.80;99.90;;;;;;5056343;28;20381;-54
2021/09/22 10:05:42;;;;;;;12.10;10.30;;;18.00;99.90;;;;;;5040074;28;20552;-54
2021/09/22 10:08:14;;;;;;;10.33;9.43;;;18.00;99.90;;;;;;5035799;28;20438;-58
2021/09/22 10:10:47;;;;;;;9.70;8.70;;;18.00;99.90;;;;;;5037002;28;20477;-51
2021/09/22 10:13:15;;;;;;;11.60;9.97;;;18.20;99.90;;;;;;5036507;28;20390;-57
2021/09/22 10:15:42;;;;;;;10.20;9.20;;;18.00;99.90;;;;;;5036047;28;22357;-58
2021/09/22 10:18:12;;;;;;;9.90;8.87;;;17.90;99.90;;;;;;5035530;28;20899;-58
2021/09/22 10:20:42;;;;;;;16.13;10.17;;;17.80;99.90;;;;;;5036913;28;20404;-58
2021/09/22 10:23:10;;;;;;;12.83;10.73;;;17.60;99.90;;;;;;5035648;28;20417;-57
2021/09/22 10:25:38;;;;;;;11.40;10.30;;;17.60;99.90;;;;;;5035126;28;20394;-58
2021/09/22 10:28:04;;;;;;;10.13;9.23;;;17.60;99.90;;;;;;5035564;28;20517;-58
2021/09/22 10:30:39;;;;;;;8.40;7.70;;;17.50;99.90;;;;;;5035769;28;20456;-56
2021/09/22 10:33:07;;;;;;;7.73;7.00;;;17.60;99.90;;;;;;5035670;28;20390;-58
2021/09/22 10:35:41;;;;;;;8.47;7.67;;;17.90;99.90;;;;;;5035317;28;20417;-57
2021/09/22 10:38:19;;;;;;;8.60;7.80;;;18.40;99.90;;;;;;5034831;28;20468;-57
2021/09/22 10:40:49;;;;;;;7.57;6.97;;;18.90;99.90;;;;;;5035921;28;20402;-55
2021/09/22 10:43:14;;;;;;;7.80;6.90;;;18.90;99.60;;;;;;5035758;28;20538;-57
2021/09/22 10:45:45;;;;;;;10.23;9.17;;;19.70;98.90;;;;;;5035581;28;20907;-58
2021/09/22 10:48:22;;;;;;;8.20;7.40;;;20.40;98.00;;;;;;5035137;28;20219;-58
2021/09/22 10:50:51;;;;;;;7.50;6.80;;;20.20;97.80;;;;;;5035862;28;20386;-58
2021/09/22 10:53:35;;;;;;;8.53;7.73;;;20.50;97.90;;;;;;5034629;28;20410;-55
2021/09/22 10:56:10;;;;;;;8.93;7.60;;;20.40;96.60;;;;;;5035170;28;20499;-58
2021/09/22 10:58:40;;;;;;;11.97;6.93;;;20.00;97.50;;;;;;5035201;28;20756;-54
2021/09/22 11:01:06;;;;;;;7.37;6.77;;;19.70;97.70;;;;;;5035498;28;20410;-53
2021/09/22 11:04:01;;;;;;;8.87;7.63;;;20.00;98.00;;;;;;5030040;28;20457;-56
2021/09/22 11:06:46;;;;;;;8.30;6.57;;;21.40;95.30;;;;;;5021619;28;20250;-57
2021/09/22 11:09:25;;;;;;;6.77;6.17;;;22.60;93.50;;;;;;5034188;28;20414;-57
2021/09/22 11:12:00;;;;;;;6.33;5.73;;;23.50;91.60;;;;;;5034625;28;20774;-57
2021/09/22 11:14:44;;;;;;;6.70;6.10;;;24.90;89.60;;;;;;5018579;28;20421;-55
2021/09/22 11:17:19;;;;;;;5.73;5.13;;;25.90;84.50;;;;;;5015166;28;20462;-57
2021/09/22 11:19:51;;;;;;;5.20;4.80;;;25.90;82.60;;;;;;5014709;28;20486;-58
2021/09/22 11:22:20;;;;;;;4.60;4.20;;;25.30;81.80;;;;;;5013810;28;20419;-57
2021/09/22 11:24:47;;;;;;;10.13;5.07;;;26.00;78.80;;;;;;5015079;28;20415;-58
2021/09/22 11:27:16;;;;;;;4.50;4.10;;;26.20;78.50;;;;;;5015507;28;22430;-57
2021/09/22 11:29:50;;;;;;;8.83;4.47;;;26.20;75.50;;;;;;5024584;28;20414;-57
2021/09/22 11:32:42;;;;;;;4.83;4.37;;;26.40;76.20;;;;;;5033528;28;20805;-56
2021/09/22 11:35:12;;;;;;;4.87;4.43;;;24.90;77.70;;;;;;5033625;28;20811;-56
2021/09/22 11:37:52;;;;;;;4.07;3.77;;;24.80;78.80;;;;;;5033253;28;20470;-58
2021/09/22 11:40:19;;;;;;;3.63;3.33;;;25.50;77.80;;;;;;5034943;28;20721;-56
2021/09/22 11:42:56;;;;;;;4.27;3.87;;;26.80;77.30;;;;;;5034084;28;20409;-58
2021/09/22 11:45:39;;;;;;;3.93;3.63;;;25.90;74.40;;;;;;5034301;28;20405;-57
2021/09/22 11:48:06;;;;;;;4.10;3.50;;;26.30;75.00;;;;;;5033923;28;20418;-58
2021/09/22 11:50:40;;;;;;;5.03;4.53;;;27.40;72.10;;;;;;5033793;28;20403;-57
2021/09/22 11:53:11;;;;;;;8.00;5.30;;;27.00;71.30;;;;;;5034132;28;20482;-57
2021/09/22 11:55:42;;;;;;;5.33;4.80;;;27.50;72.70;;;;;;5031539;28;20384;-57
2021/09/22 11:58:12;;;;;;;4.50;4.20;;;26.50;71.30;;;;;;5032928;28;20744;-56
2021/09/22 12:00:39;;;;;;;5.10;4.43;;;26.10;73.70;;;;;;5034368;28;20391;-58
2021/09/22 12:03:10;;;;;;;4.43;3.90;;;27.60;70.80;;;;;;5035248;28;20759;-58
2021/09/22 12:05:36;;;;;;;4.00;3.70;;;28.50;68.30;;;;;;5034022;28;20429;-58
2021/09/22 12:08:02;;;;;;;5.43;3.80;;;27.30;69.20;;;;;;5033617;28;20491;-58
2021/09/22 12:10:28;;;;;;;4.13;3.20;;;26.00;71.50;;;;;;5033791;28;20398;-57
2021/09/22 12:13:05;;;;;;;3.50;2.97;;;25.40;72.60;;;;;;5033782;28;20164;-57
2021/09/22 12:15:32;;;;;;;3.80;2.93;;;25.00;75.10;;;;;;5034099;28;20214;-58
2021/09/22 12:17:58;;;;;;;3.40;3.10;;;25.70;73.50;;;;;;5034005;28;20440;-57
2021/09/22 12:20:25;;;;;;;3.60;2.80;;;25.10;75.00;;;;;;5033571;28;20448;-56
2021/09/22 12:23:02;;;;;;;2.90;2.70;;;24.70;76.40;;;;;;5032145;28;20430;-55
2021/09/22 12:25:29;;;;;;;2.67;2.47;;;25.00;75.80;;;;;;5033753;28;20406;-57
2021/09/22 12:27:56;;;;;;;3.90;3.03;;;25.80;74.20;;;;;;5033847;28;20434;-58
2021/09/22 12:30:48;;;;;;;3.20;2.90;;;27.30;71.40;;;;;;5033281;28;20433;-58
2021/09/22 12:33:19;;;;;;;5.43;3.77;;;26.90;70.90;;;;;;5029684;28;20853;-57
2021/09/22 12:35:45;;;;;;;5.60;3.93;;;27.10;70.90;;;;;;5033885;28;20394;-58